Time;durP1;ratioP1;P1;durP2;ratioP2;P2;SDS_P1;SDS_P2;PMS_P1;PMS_P2;Temp;Humidity;BMP_temperature;BMP_pressure;BME280_temperature;BME280_humidity;BME280_pressure;Samples;Min_cycle;Max_cycle;Signal;HPM_P1;HPM_P2
2023/06/25 00:01:01;;;;;;;13.38;11.68;;;19.30;99.90;;;;;;5054005;28;20037;-75
2023/06/25 00:03:27;;;;;;;12.95;10.60;;;19.30;99.90;;;;;;5054005;28;20040;-74
2023/06/25 00:05:53;;;;;;;13.00;10.88;;;19.30;99.90;;;;;;5054123;28;20044;-74
2023/06/25 00:08:19;;;;;;;13.93;11.60;;;19.30;99.90;;;;;;5054174;28;20068;-75
2023/06/25 00:10:45;;;;;;;13.88;11.25;;;19.20;99.90;;;;;;5035949;28;20086;-75
2023/06/25 00:13:10;;;;;;;13.65;11.05;;;19.20;99.90;;;;;;5053955;28;20037;-75
2023/06/25 00:15:36;;;;;;;14.43;12.77;;;19.20;99.90;;;;;;5054086;28;20033;-75
2023/06/25 00:18:02;;;;;;;13.98;12.25;;;19.10;99.90;;;;;;5036115;28;20111;-75
2023/06/25 00:20:28;;;;;;;11.23;9.75;;;19.10;99.90;;;;;;5053920;28;20033;-75
2023/06/25 00:22:54;;;;;;;17.83;13.88;;;19.10;99.90;;;;;;5053616;28;20048;-75
2023/06/25 00:25:20;;;;;;;13.73;10.32;;;19.10;99.90;;;;;;5054117;28;20051;-75
2023/06/25 00:27:47;;;;;;;16.50;12.75;;;19.10;99.90;;;;;;5053431;28;20037;-75
2023/06/25 00:30:16;;;;;;;10.55;8.70;;;19.00;99.90;;;;;;5035589;28;20114;-75
2023/06/25 00:32:43;;;;;;;14.88;12.63;;;19.00;99.90;;;;;;5053432;28;20053;-75
2023/06/25 00:35:10;;;;;;;15.90;13.15;;;19.00;99.90;;;;;;5035571;28;20072;-75
2023/06/25 00:37:36;;;;;;;18.55;15.13;;;19.00;99.90;;;;;;5053130;28;20041;-75
2023/06/25 00:40:07;;;;;;;13.88;12.20;;;18.90;99.90;;;;;;5053320;28;20045;-75
2023/06/25 00:42:43;;;;;;;13.93;11.55;;;18.80;99.90;;;;;;5053241;28;20144;-75
2023/06/25 00:45:11;;;;;;;14.93;12.30;;;18.80;99.90;;;;;;5019475;28;20045;-75
2023/06/25 00:47:38;;;;;;;14.52;12.45;;;18.80;99.90;;;;;;5053243;28;20045;-75
2023/06/25 00:50:04;;;;;;;15.02;13.32;;;18.80;99.90;;;;;;5053403;28;20501;-75
2023/06/25 00:52:30;;;;;;;14.32;11.85;;;18.80;99.90;;;;;;5053194;28;20120;-75
2023/06/25 00:54:55;;;;;;;16.63;14.05;;;18.70;99.90;;;;;;5053439;28;20132;-76
2023/06/25 00:57:21;;;;;;;10.38;8.57;;;18.60;99.90;;;;;;5052976;28;20033;-75
2023/06/25 00:59:50;;;;;;;10.10;8.38;;;18.60;99.90;;;;;;5053290;28;20041;-75
2023/06/25 01:02:27;;;;;;;12.70;8.80;;;18.60;99.90;;;;;;5036124;28;20064;-75
2023/06/25 01:05:11;;;;;;;13.77;12.07;;;18.70;99.90;;;;;;5018797;28;20056;-75
2023/06/25 01:07:43;;;;;;;10.57;7.93;;;18.70;99.90;;;;;;5035030;28;20135;-75
2023/06/25 01:10:10;;;;;;;13.45;10.90;;;18.70;99.90;;;;;;5035104;28;20048;-75
2023/06/25 01:12:36;;;;;;;10.60;8.82;;;18.70;99.90;;;;;;5053052;28;20071;-75
2023/06/25 01:15:03;;;;;;;10.43;8.50;;;18.70;99.90;;;;;;5035041;28;20037;-75
2023/06/25 01:17:29;;;;;;;10.90;8.73;;;18.70;99.90;;;;;;5052796;28;20054;-75
2023/06/25 01:19:55;;;;;;;11.55;8.70;;;18.70;99.90;;;;;;5053024;28;20112;-75
2023/06/25 01:22:31;;;;;;;12.80;11.02;;;18.70;99.90;;;;;;5053051;28;20134;-75
2023/06/25 01:25:00;;;;;;;10.68;8.73;;;18.70;99.90;;;;;;5035133;28;20563;-75
2023/06/25 01:27:26;;;;;;;14.43;12.35;;;18.70;99.90;;;;;;5052987;28;20506;-75
2023/06/25 01:29:51;;;;;;;10.18;8.75;;;18.70;99.90;;;;;;5034872;28;20084;-76
2023/06/25 01:32:18;;;;;;;11.77;10.45;;;18.70;99.90;;;;;;5052610;28;20057;-75
2023/06/25 01:34:45;;;;;;;9.75;8.75;;;18.70;99.90;;;;;;5052977;28;20033;-75
2023/06/25 01:37:11;;;;;;;18.85;15.65;;;18.70;99.90;;;;;;5052948;28;20052;-75
2023/06/25 01:39:37;;;;;;;20.27;16.58;;;18.60;99.90;;;;;;5052897;28;20040;-75
2023/06/25 01:42:04;;;;;;;12.38;9.90;;;18.60;99.90;;;;;;5034835;28;20041;-75
2023/06/25 01:44:31;;;;;;;9.95;8.00;;;18.50;99.90;;;;;;5052571;28;20056;-75
2023/06/25 01:46:58;;;;;;;10.68;8.40;;;18.50;99.90;;;;;;5052747;28;20110;-75
2023/06/25 01:49:25;;;;;;;19.15;17.05;;;18.50;99.90;;;;;;5055798;28;20041;-75
2023/06/25 01:51:51;;;;;;;15.32;11.70;;;18.50;99.90;;;;;;5056775;28;20033;-75
2023/06/25 01:54:17;;;;;;;11.13;9.38;;;18.40;99.90;;;;;;5056275;28;20053;-75
2023/06/25 01:56:43;;;;;;;11.73;9.68;;;18.50;99.90;;;;;;5056423;28;20044;-75
2023/06/25 01:59:10;;;;;;;16.42;12.40;;;18.40;99.90;;;;;;5056559;28;20404;-75
2023/06/25 02:01:35;;;;;;;14.52;12.60;;;18.50;99.90;;;;;;5038721;28;20102;-75
2023/06/25 02:04:01;;;;;;;12.40;10.68;;;18.40;99.90;;;;;;5056490;28;20444;-75
2023/06/25 02:06:27;;;;;;;12.63;9.57;;;18.40;99.90;;;;;;5056496;28;20040;-75
2023/06/25 02:08:53;;;;;;;12.63;9.45;;;18.40;99.90;;;;;;5038316;28;20167;-75
2023/06/25 02:11:19;;;;;;;12.82;10.60;;;18.40;99.90;;;;;;5055983;28;20067;-75
2023/06/25 02:13:44;;;;;;;14.55;11.93;;;18.40;99.90;;;;;;5056392;28;20033;-75
2023/06/25 02:16:10;;;;;;;13.50;12.00;;;18.30;99.90;;;;;;5038118;28;20123;-75
2023/06/25 02:18:36;;;;;;;12.43;9.82;;;18.10;99.90;;;;;;5038402;28;20059;-75
2023/06/25 02:21:02;;;;;;;12.32;8.98;;;18.00;99.90;;;;;;5056168;28;20449;-75
2023/06/25 02:23:28;;;;;;;16.75;13.20;;;18.00;99.90;;;;;;5055854;28;20064;-75
2023/06/25 02:25:54;;;;;;;14.48;12.18;;;18.00;99.90;;;;;;5055797;28;20497;-75
2023/06/25 02:28:19;;;;;;;13.20;10.43;;;18.00;99.90;;;;;;5056061;28;20487;-74
2023/06/25 02:30:45;;;;;;;17.13;14.95;;;18.00;99.90;;;;;;5055828;28;20036;-75
2023/06/25 02:33:11;;;;;;;13.38;10.48;;;18.00;99.90;;;;;;5037607;28;20063;-74
2023/06/25 02:35:37;;;;;;;11.68;9.23;;;18.00;99.90;;;;;;5055920;28;20484;-75
2023/06/25 02:38:03;;;;;;;9.85;8.68;;;18.00;99.90;;;;;;5055640;28;20124;-75
2023/06/25 02:40:28;;;;;;;11.32;9.07;;;18.00;99.90;;;;;;5055813;28;20037;-75
2023/06/25 02:42:57;;;;;;;11.77;9.98;;;18.00;99.90;;;;;;5055523;28;20485;-75
2023/06/25 02:45:23;;;;;;;11.95;10.10;;;18.10;99.90;;;;;;5037755;28;20096;-74
2023/06/25 02:47:49;;;;;;;13.35;10.60;;;18.10;99.90;;;;;;5055442;28;20519;-75
2023/06/25 02:50:16;;;;;;;17.05;13.85;;;18.10;99.90;;;;;;5037510;28;20041;-75
2023/06/25 02:52:42;;;;;;;20.10;17.17;;;18.10;99.90;;;;;;5055413;28;20045;-74
2023/06/25 02:55:08;;;;;;;13.90;11.35;;;18.00;99.90;;;;;;5037680;28;20045;-75
2023/06/25 02:57:34;;;;;;;13.82;10.80;;;17.90;99.90;;;;;;5055501;28;20119;-75
2023/06/25 03:00:00;;;;;;;16.65;14.43;;;17.80;99.90;;;;;;5037208;28;20072;-75
2023/06/25 03:02:26;;;;;;;22.00;18.95;;;17.80;99.90;;;;;;5055505;28;20040;-75
2023/06/25 03:04:52;;;;;;;13.70;11.70;;;17.70;99.90;;;;;;5037307;28;20041;-75
2023/06/25 03:07:18;;;;;;;12.13;10.57;;;17.70;99.90;;;;;;5055299;28;20041;-75
2023/06/25 03:09:44;;;;;;;17.48;14.73;;;17.80;99.90;;;;;;5037211;28;20067;-75
2023/06/25 03:12:10;;;;;;;13.63;10.88;;;17.80;99.90;;;;;;5037087;28;20045;-75
2023/06/25 03:14:37;;;;;;;13.32;11.35;;;17.80;99.90;;;;;;5037119;28;20051;-75
2023/06/25 03:17:03;;;;;;;14.23;10.93;;;17.80;99.90;;;;;;5036993;28;20037;-74
2023/06/25 03:19:29;;;;;;;13.75;11.75;;;17.80;99.90;;;;;;5020756;28;20402;-75
2023/06/25 03:21:55;;;;;;;21.00;18.00;;;17.90;99.90;;;;;;5054757;28;20095;-76
2023/06/25 03:24:21;;;;;;;19.02;16.05;;;17.90;99.90;;;;;;5036870;28;20051;-75
2023/06/25 03:26:47;;;;;;;19.38;15.80;;;17.90;99.90;;;;;;5054721;28;20052;-75
2023/06/25 03:29:13;;;;;;;18.55;15.57;;;17.90;99.90;;;;;;5054882;28;20079;-75
2023/06/25 03:31:38;;;;;;;18.60;16.00;;;17.90;99.90;;;;;;5054850;28;20239;-75
2023/06/25 03:34:04;;;;;;;23.52;18.95;;;17.90;99.90;;;;;;5036642;28;20052;-74
2023/06/25 03:36:30;;;;;;;22.23;18.73;;;17.90;99.90;;;;;;5054911;28;20098;-74
2023/06/25 03:38:57;;;;;;;16.40;13.98;;;17.90;99.90;;;;;;5054767;28;20043;-74
2023/06/25 03:41:23;;;;;;;21.90;18.17;;;17.90;99.90;;;;;;5036697;28;20485;-74
2023/06/25 03:43:48;;;;;;;20.58;17.50;;;17.90;99.90;;;;;;5054438;28;20405;-75
2023/06/25 03:46:14;;;;;;;20.08;17.73;;;17.80;99.90;;;;;;5054302;28;20124;-75
2023/06/25 03:48:42;;;;;;;20.73;17.02;;;17.70;99.90;;;;;;5036436;28;20067;-74
2023/06/25 03:51:08;;;;;;;19.27;15.43;;;17.60;99.90;;;;;;5036533;28;20064;-75
2023/06/25 03:53:34;;;;;;;16.85;14.52;;;17.60;99.90;;;;;;5036345;28;20119;-75
2023/06/25 03:55:59;;;;;;;19.33;15.82;;;17.60;99.90;;;;;;5036466;28;20438;-74
2023/06/25 03:58:25;;;;;;;17.58;15.60;;;17.60;99.90;;;;;;5053993;28;20032;-74
2023/06/25 04:00:51;;;;;;;15.75;13.18;;;17.60;99.90;;;;;;5054282;28;20033;-74
2023/06/25 04:03:17;;;;;;;20.80;18.02;;;17.60;99.90;;;;;;5019668;28;20455;-74
2023/06/25 04:05:44;;;;;;;20.60;17.10;;;17.60;99.90;;;;;;5036322;28;20040;-75
2023/06/25 04:08:10;;;;;;;20.30;16.77;;;17.50;99.90;;;;;;5054194;28;20112;-74
2023/06/25 04:10:37;;;;;;;17.05;14.10;;;17.50;99.90;;;;;;5053590;28;20068;-74
2023/06/25 04:13:02;;;;;;;17.70;15.50;;;17.40;99.90;;;;;;5035905;28;20045;-75
2023/06/25 04:15:28;;;;;;;17.48;15.40;;;17.50;99.90;;;;;;5035972;28;20066;-74
2023/06/25 04:17:54;;;;;;;22.48;18.20;;;17.40;99.90;;;;;;5054009;28;20040;-75
2023/06/25 04:20:19;;;;;;;27.25;22.77;;;17.50;99.90;;;;;;5053912;28;20033;-74
2023/06/25 04:22:45;;;;;;;22.58;19.38;;;17.50;99.90;;;;;;5035857;28;20056;-74
2023/06/25 04:25:11;;;;;;;23.15;19.50;;;17.50;99.90;;;;;;5053569;28;20044;-74
2023/06/25 04:27:38;;;;;;;23.08;20.23;;;17.50;99.90;;;;;;5053649;28;20044;-74
2023/06/25 04:30:04;;;;;;;21.02;16.52;;;17.50;99.90;;;;;;5053834;28;20043;-74
2023/06/25 04:32:32;;;;;;;22.65;19.15;;;17.50;99.90;;;;;;5035393;28;20061;-74
2023/06/25 04:34:58;;;;;;;23.10;18.83;;;17.50;99.90;;;;;;5053466;28;20037;-74
2023/06/25 04:37:24;;;;;;;23.15;18.80;;;17.60;99.90;;;;;;5053357;28;20033;-74
2023/06/25 04:39:50;;;;;;;23.95;19.67;;;17.60;99.90;;;;;;5035820;28;20064;-74
2023/06/25 04:42:16;;;;;;;24.60;19.98;;;17.60;99.90;;;;;;5053304;28;20041;-74
2023/06/25 04:44:41;;;;;;;21.40;18.60;;;17.60;99.90;;;;;;5035698;28;20123;-74
2023/06/25 04:47:07;;;;;;;23.52;20.20;;;17.70;99.90;;;;;;5019323;28;20040;-74
2023/06/25 04:49:33;;;;;;;24.38;20.83;;;17.70;99.90;;;;;;5053516;28;20400;-74
2023/06/25 04:51:58;;;;;;;23.77;21.25;;;17.80;99.90;;;;;;5053348;28;20048;-74
2023/06/25 04:54:24;;;;;;;28.38;22.08;;;17.80;99.90;;;;;;5053316;28;20130;-75
2023/06/25 04:56:50;;;;;;;24.20;21.23;;;17.90;99.90;;;;;;5053415;28;20037;-74
2023/06/25 04:59:15;;;;;;;23.02;19.92;;;18.00;99.90;;;;;;5035135;28;20163;-74
2023/06/25 05:01:41;;;;;;;22.35;18.77;;;18.20;99.90;;;;;;5053352;28;20040;-74
2023/06/25 05:04:07;;;;;;;20.75;17.88;;;18.50;99.90;;;;;;5052988;28;20548;-74
2023/06/25 05:06:32;;;;;;;19.30;17.05;;;19.00;99.90;;;;;;5035220;28;20130;-74
2023/06/25 05:08:58;;;;;;;21.42;17.20;;;19.50;99.90;;;;;;5053205;28;20036;-74
2023/06/25 05:11:24;;;;;;;19.67;16.42;;;20.10;99.90;;;;;;5035048;28;20076;-74
2023/06/25 05:13:50;;;;;;;18.35;16.23;;;20.60;99.90;;;;;;5053219;28;20447;-74
2023/06/25 05:16:15;;;;;;;17.38;15.55;;;21.30;99.90;;;;;;5052921;28;20037;-75
2023/06/25 05:18:42;;;;;;;16.73;14.07;;;21.80;99.90;;;;;;5034968;28;20045;-74
2023/06/25 05:21:08;;;;;;;17.77;15.82;;;22.20;99.90;;;;;;5053128;28;20528;-75
2023/06/25 05:23:44;;;;;;;18.85;14.70;;;22.30;99.90;;;;;;5055033;28;20033;-72
2023/06/25 05:26:13;;;;;;;16.63;14.77;;;23.20;99.90;;;;;;5057216;28;20032;-73
2023/06/25 05:28:39;;;;;;;18.08;14.20;;;23.30;99.90;;;;;;5039731;28;20037;-72
2023/06/25 05:31:07;;;;;;;16.23;13.07;;;23.90;99.90;;;;;;5056953;28;20378;-73
2023/06/25 05:33:33;;;;;;;16.52;13.98;;;24.20;99.90;;;;;;5056768;28;20060;-73
2023/06/25 05:35:58;;;;;;;17.38;13.85;;;24.60;99.90;;;;;;5039420;28;20200;-72
2023/06/25 05:38:24;;;;;;;16.25;13.68;;;25.00;99.90;;;;;;5056711;28;20090;-72
2023/06/25 05:40:50;;;;;;;17.67;14.65;;;25.20;99.90;;;;;;5039100;28;20040;-72
2023/06/25 05:43:15;;;;;;;17.58;15.57;;;25.20;99.90;;;;;;5056901;28;20033;-72
2023/06/25 05:45:41;;;;;;;15.73;14.00;;;24.40;99.70;;;;;;5056907;28;20037;-72
2023/06/25 05:48:07;;;;;;;16.10;13.77;;;23.90;99.90;;;;;;5038830;28;20114;-73
2023/06/25 05:50:32;;;;;;;17.23;14.50;;;23.60;99.90;;;;;;5056783;28;20044;-73
2023/06/25 05:52:58;;;;;;;18.60;14.00;;;23.90;99.90;;;;;;5056339;28;20037;-71
2023/06/25 05:55:24;;;;;;;17.98;14.82;;;24.30;99.90;;;;;;5056716;28;20037;-72
2023/06/25 05:57:50;;;;;;;15.68;14.02;;;24.20;99.90;;;;;;5056632;28;20056;-72
2023/06/25 06:00:16;;;;;;;16.08;14.38;;;24.30;99.90;;;;;;5022102;28;20424;-72
2023/06/25 06:02:42;;;;;;;16.85;14.27;;;24.70;99.90;;;;;;5056541;28;20136;-73
2023/06/25 06:05:07;;;;;;;15.90;14.20;;;25.00;99.90;;;;;;5038479;28;20084;-73
2023/06/25 06:07:33;;;;;;;17.92;13.70;;;25.10;99.90;;;;;;5056448;28;20045;-72
2023/06/25 06:09:59;;;;;;;17.17;14.70;;;24.90;99.90;;;;;;5038459;28;20095;-72
2023/06/25 06:12:25;;;;;;;16.48;14.73;;;24.70;99.90;;;;;;5038262;28;20123;-73
2023/06/25 06:14:51;;;;;;;17.27;14.70;;;24.40;99.90;;;;;;5038475;28;20068;-73
2023/06/25 06:17:17;;;;;;;17.20;14.32;;;24.30;99.90;;;;;;5056287;28;20048;-72
2023/06/25 06:19:42;;;;;;;16.80;13.82;;;24.70;99.90;;;;;;5038164;28;20029;-71
2023/06/25 06:22:08;;;;;;;17.42;13.82;;;24.90;99.90;;;;;;5056171;28;20037;-72
2023/06/25 06:24:34;;;;;;;16.83;14.85;;;25.70;99.90;;;;;;5055864;28;20041;-71
2023/06/25 06:27:00;;;;;;;16.73;14.80;;;25.80;99.10;;;;;;5055820;28;20037;-72
2023/06/25 06:29:25;;;;;;;18.40;15.63;;;25.60;98.90;;;;;;5038323;28;20048;-71
2023/06/25 06:31:51;;;;;;;15.52;13.90;;;25.20;99.60;;;;;;5055986;28;20036;-71
2023/06/25 06:34:17;;;;;;;17.92;15.10;;;25.80;99.60;;;;;;5054978;28;20154;-73
2023/06/25 06:36:42;;;;;;;15.95;14.25;;;26.00;98.80;;;;;;5055999;28;20052;-72
2023/06/25 06:39:08;;;;;;;16.17;14.48;;;26.30;98.50;;;;;;5021266;28;20126;-73
2023/06/25 06:41:34;;;;;;;15.52;13.80;;;26.10;98.00;;;;;;5055650;28;20116;-72
2023/06/25 06:44:17;;;;;;;16.20;13.10;;;26.40;98.00;;;;;;5055773;28;20047;-72
2023/06/25 06:46:43;;;;;;;16.67;14.07;;;26.80;98.10;;;;;;5055674;28;20045;-73
2023/06/25 06:49:10;;;;;;;17.40;13.90;;;27.40;97.10;;;;;;5055640;28;20048;-72
2023/06/25 06:51:37;;;;;;;15.95;14.27;;;27.10;96.20;;;;;;5055391;28;20044;-72
2023/06/25 06:54:06;;;;;;;17.88;14.05;;;27.20;96.30;;;;;;5037735;28;20068;-73
2023/06/25 06:56:32;;;;;;;17.65;14.60;;;27.60;95.50;;;;;;5055518;28;20123;-72
2023/06/25 06:58:58;;;;;;;15.18;13.57;;;27.70;95.50;;;;;;5055112;28;20044;-71
2023/06/25 07:01:25;;;;;;;16.00;13.55;;;27.90;94.90;;;;;;5055492;28;20032;-72
2023/06/25 07:03:50;;;;;;;15.25;13.57;;;27.70;95.10;;;;;;5037685;28;20045;-72
2023/06/25 07:06:16;;;;;;;15.23;13.07;;;28.20;93.90;;;;;;5055394;28;20398;-72
2023/06/25 07:08:42;;;;;;;14.65;13.15;;;28.30;93.80;;;;;;5055062;28;20041;-73
2023/06/25 07:11:07;;;;;;;15.23;13.63;;;28.30;94.10;;;;;;5055053;28;20041;-73
2023/06/25 07:13:33;;;;;;;14.38;12.85;;;28.30;93.20;;;;;;5037500;28;20041;-72
2023/06/25 07:15:59;;;;;;;15.45;13.70;;;28.60;92.90;;;;;;5055210;28;20044;-72
2023/06/25 07:18:24;;;;;;;20.02;13.05;;;28.40;92.70;;;;;;5037105;28;20052;-73
2023/06/25 07:20:50;;;;;;;15.70;13.15;;;28.50;93.30;;;;;;5037302;28;20045;-73
2023/06/25 07:23:16;;;;;;;14.98;13.18;;;28.40;93.30;;;;;;5054764;28;20397;-72
2023/06/25 07:25:42;;;;;;;14.95;13.45;;;28.70;92.10;;;;;;5054785;28;20063;-73
2023/06/25 07:28:10;;;;;;;15.27;12.65;;;28.90;91.40;;;;;;5054932;28;20033;-73
2023/06/25 07:30:38;;;;;;;14.25;12.60;;;29.30;91.30;;;;;;5054811;28;20179;-73
2023/06/25 07:33:04;;;;;;;14.70;12.02;;;29.80;90.60;;;;;;5054295;28;20135;-73
2023/06/25 07:35:30;;;;;;;13.75;12.35;;;30.00;89.80;;;;;;5054792;28;20111;-73
2023/06/25 07:37:55;;;;;;;13.63;12.23;;;30.10;87.50;;;;;;5054377;28;20521;-73
2023/06/25 07:40:21;;;;;;;14.70;11.45;;;30.00;86.80;;;;;;5054702;28;20037;-73
2023/06/25 07:42:47;;;;;;;18.02;12.45;;;30.00;89.10;;;;;;5054729;28;20496;-73
2023/06/25 07:45:13;;;;;;;14.50;12.23;;;30.20;87.90;;;;;;5036044;28;20044;-72
2023/06/25 07:47:38;;;;;;;14.07;12.57;;;30.20;87.40;;;;;;5053885;28;20040;-73
2023/06/25 07:50:05;;;;;;;16.05;12.30;;;30.50;85.90;;;;;;5054235;28;20048;-73
2023/06/25 07:52:31;;;;;;;14.18;12.32;;;30.40;86.10;;;;;;5054199;28;20045;-72
2023/06/25 07:54:57;;;;;;;13.13;11.20;;;30.30;84.50;;;;;;5054340;28;20489;-72
2023/06/25 07:57:22;;;;;;;13.55;11.77;;;30.20;85.80;;;;;;5054340;28;20039;-72
2023/06/25 07:59:48;;;;;;;14.45;11.55;;;30.20;85.50;;;;;;5054389;28;20509;-72
2023/06/25 08:02:14;;;;;;;13.20;11.18;;;30.20;82.70;;;;;;5054293;28;20072;-72
2023/06/25 08:04:40;;;;;;;13.52;12.13;;;30.30;84.60;;;;;;5054257;28;20052;-73
2023/06/25 08:07:06;;;;;;;12.65;10.93;;;29.90;85.50;;;;;;5054115;28;20041;-72
2023/06/25 08:09:31;;;;;;;11.85;10.65;;;30.10;84.00;;;;;;5054087;28;20041;-73
2023/06/25 08:11:57;;;;;;;14.13;12.07;;;30.40;83.20;;;;;;5054043;28;20052;-72
2023/06/25 08:14:23;;;;;;;12.85;10.40;;;30.50;82.50;;;;;;5036033;28;20033;-73
2023/06/25 08:16:49;;;;;;;12.52;10.05;;;30.30;84.10;;;;;;5036098;28;20119;-73
2023/06/25 08:19:15;;;;;;;10.88;9.77;;;30.50;82.90;;;;;;5053667;28;20048;-72
2023/06/25 08:21:41;;;;;;;12.20;9.60;;;30.60;83.40;;;;;;5053721;28;20041;-72
2023/06/25 08:24:06;;;;;;;10.32;8.77;;;30.80;83.30;;;;;;5053877;28;20036;-73
2023/06/25 08:26:32;;;;;;;11.98;9.80;;;31.10;80.30;;;;;;5053558;28;20041;-72
2023/06/25 08:28:58;;;;;;;11.38;9.18;;;31.20;77.50;;;;;;5053818;28;20044;-72
2023/06/25 08:31:24;;;;;;;11.93;10.02;;;31.20;78.70;;;;;;5053471;28;20068;-73
2023/06/25 08:33:49;;;;;;;12.10;9.43;;;31.00;78.30;;;;;;5053305;28;20049;-73
2023/06/25 08:36:16;;;;;;;12.05;10.27;;;30.90;79.00;;;;;;5035510;28;20053;-72
2023/06/25 08:38:42;;;;;;;10.60;8.13;;;31.00;79.40;;;;;;5053713;28;20102;-72
2023/06/25 08:41:08;;;;;;;9.70;7.65;;;31.20;78.30;;;;;;5053579;28;20393;-72
2023/06/25 08:43:34;;;;;;;9.32;7.03;;;31.30;73.30;;;;;;5035311;28;20081;-73
2023/06/25 08:46:00;;;;;;;9.50;7.43;;;31.30;74.50;;;;;;5053143;28;20493;-72
2023/06/25 08:48:28;;;;;;;8.30;6.38;;;31.10;74.40;;;;;;5053431;28;20342;-73
2023/06/25 08:50:56;;;;;;;7.95;6.47;;;31.00;72.60;;;;;;5053093;28;20044;-73
2023/06/25 08:53:27;;;;;;;7.25;5.80;;;31.20;68.70;;;;;;5053372;28;20045;-73
2023/06/25 08:55:56;;;;;;;7.78;6.10;;;31.30;70.00;;;;;;5053087;28;20389;-73
2023/06/25 08:58:22;;;;;;;8.75;5.70;;;31.50;69.20;;;;;;5053264;28;20397;-73
2023/06/25 09:00:48;;;;;;;9.00;7.18;;;31.50;67.80;;;;;;5053311;28;20044;-72
2023/06/25 09:03:14;;;;;;;10.65;7.07;;;31.30;67.50;;;;;;5053275;28;20052;-72
2023/06/25 09:05:54;;;;;;;8.60;6.90;;;31.20;69.70;;;;;;5053002;28;20040;-73
2023/06/25 09:08:24;;;;;;;11.05;6.05;;;31.30;68.80;;;;;;5053221;28;20049;-73
2023/06/25 09:10:55;;;;;;;10.65;6.40;;;31.50;67.00;;;;;;5053224;28;20123;-73
2023/06/25 09:13:25;;;;;;;8.43;6.40;;;31.50;64.60;;;;;;5053171;28;20136;-73
2023/06/25 09:15:53;;;;;;;7.20;5.20;;;31.50;65.00;;;;;;5052884;28;20045;-72
2023/06/25 09:18:21;;;;;;;7.68;5.55;;;31.40;65.10;;;;;;5053242;28;20037;-72
2023/06/25 09:20:48;;;;;;;7.45;5.30;;;31.40;63.90;;;;;;5053076;28;20059;-72
2023/06/25 09:23:19;;;;;;;7.72;5.60;;;31.40;62.10;;;;;;5053081;28;20055;-73
2023/06/25 09:25:45;;;;;;;7.50;5.40;;;31.30;61.80;;;;;;5052821;28;20465;-72
2023/06/25 09:28:11;;;;;;;7.15;5.35;;;31.40;63.50;;;;;;5052844;28;20037;-72
2023/06/25 09:30:39;;;;;;;7.15;4.82;;;31.50;60.50;;;;;;5053073;28;20455;-72
2023/06/25 09:33:05;;;;;;;6.28;5.00;;;31.60;62.20;;;;;;5034682;28;20057;-73
2023/06/25 09:35:32;;;;;;;7.47;5.15;;;31.80;61.70;;;;;;5053002;28;20503;-72
2023/06/25 09:37:59;;;;;;;8.60;5.30;;;31.90;57.70;;;;;;5052640;28;20037;-72
2023/06/25 09:40:25;;;;;;;8.85;5.05;;;32.00;56.50;;;;;;5052567;28;20037;-72
2023/06/25 09:42:55;;;;;;;7.38;5.05;;;32.00;57.90;;;;;;5052888;28;20048;-72
2023/06/25 09:45:23;;;;;;;8.48;4.70;;;31.90;56.30;;;;;;5052615;28;20037;-72
2023/06/25 09:47:50;;;;;;;7.05;4.65;;;31.70;57.60;;;;;;5052663;28;20664;-73
2023/06/25 09:50:28;;;;;;;9.80;5.03;;;31.80;56.20;;;;;;5052797;28;20041;-73
2023/06/25 09:53:03;;;;;;;7.50;5.25;;;31.80;58.60;;;;;;5052762;28;20122;-72
2023/06/25 09:55:30;;;;;;;7.35;4.72;;;31.80;58.00;;;;;;5052801;28;20046;-72
2023/06/25 09:57:57;;;;;;;8.60;4.80;;;31.90;57.80;;;;;;5052812;28;20037;-72
2023/06/25 10:00:24;;;;;;;7.40;5.22;;;32.00;58.70;;;;;;5052682;28;20037;-72
2023/06/25 10:02:52;;;;;;;7.57;5.07;;;32.10;55.30;;;;;;5052432;28;20076;-72
2023/06/25 10:05:18;;;;;;;9.10;5.43;;;32.20;55.00;;;;;;5052726;28;20102;-72
2023/06/25 10:07:44;;;;;;;8.68;5.80;;;32.20;53.20;;;;;;5034541;28;20041;-71
2023/06/25 10:10:20;;;;;;;8.27;5.40;;;32.00;50.80;;;;;;5037092;28;20045;-73
2023/06/25 10:12:47;;;;;;;7.50;5.05;;;31.90;51.00;;;;;;5038241;28;20095;-72
2023/06/25 10:15:13;;;;;;;7.45;4.95;;;31.80;52.60;;;;;;5056418;28;20136;-72
2023/06/25 10:17:51;;;;;;;8.32;4.95;;;31.90;53.30;;;;;;5021760;28;20120;-71
2023/06/25 10:20:44;;;;;;;7.40;5.00;;;31.70;53.20;;;;;;5056267;28;20083;-71
2023/06/25 10:23:12;;;;;;;7.10;5.03;;;31.90;54.90;;;;;;5056017;28;20052;-72
2023/06/25 10:25:55;;;;;;;7.70;4.80;;;32.20;53.10;;;;;;5055860;28;20049;-72
2023/06/25 10:28:34;;;;;;;8.85;4.57;;;32.20;52.90;;;;;;5056197;28;20048;-71
2023/06/25 10:31:12;;;;;;;6.40;4.38;;;32.20;51.30;;;;;;5056059;28;20044;-71
2023/06/25 10:33:38;;;;;;;7.68;4.07;;;32.10;50.20;;;;;;5021180;28;20136;-72
2023/06/25 10:36:08;;;;;;;7.93;5.18;;;32.10;51.90;;;;;;5055944;28;20115;-72
2023/06/25 10:38:34;;;;;;;7.57;5.00;;;32.20;51.50;;;;;;5055713;28;20041;-72
2023/06/25 10:40:59;;;;;;;7.93;4.72;;;32.00;51.90;;;;;;5055795;28;20598;-72
2023/06/25 10:43:25;;;;;;;8.02;4.70;;;32.20;50.90;;;;;;5055834;28;20076;-72
2023/06/25 10:45:53;;;;;;;6.15;4.28;;;32.20;50.70;;;;;;5037738;28;20127;-72
2023/06/25 10:48:19;;;;;;;7.25;4.38;;;32.20;49.00;;;;;;5055526;28;20045;-72
2023/06/25 10:50:45;;;;;;;9.50;4.28;;;32.20;49.30;;;;;;5055763;28;20041;-71
2023/06/25 10:53:16;;;;;;;6.28;4.45;;;32.30;49.90;;;;;;5055207;28;20041;-71
2023/06/25 10:55:47;;;;;;;6.82;4.40;;;32.40;49.60;;;;;;5037738;28;20063;-73
2023/06/25 10:58:15;;;;;;;6.70;4.15;;;32.40;48.90;;;;;;5055497;28;20037;-72
2023/06/25 11:00:41;;;;;;;6.47;3.97;;;32.60;49.50;;;;;;5055571;28;20477;-72
2023/06/25 11:03:07;;;;;;;6.30;3.72;;;32.80;49.10;;;;;;5055059;28;20041;-72
2023/06/25 11:05:39;;;;;;;6.60;4.40;;;32.80;49.30;;;;;;5055439;28;20132;-72
2023/06/25 11:08:05;;;;;;;6.07;4.15;;;33.00;47.40;;;;;;5055502;28;20045;-73
2023/06/25 11:10:32;;;;;;;6.82;4.10;;;32.90;46.90;;;;;;5037154;28;20127;-73
2023/06/25 11:12:58;;;;;;;5.65;3.90;;;32.80;46.30;;;;;;5054911;28;20041;-74
2023/06/25 11:15:24;;;;;;;8.35;4.00;;;32.70;48.70;;;;;;5037454;28;20036;-73
2023/06/25 11:17:54;;;;;;;6.78;4.30;;;32.80;49.60;;;;;;5054992;28;20095;-73
2023/06/25 11:20:23;;;;;;;6.57;4.10;;;32.90;49.30;;;;;;5036185;28;20544;-73
2023/06/25 11:22:49;;;;;;;5.72;3.92;;;32.80;47.70;;;;;;5054826;28;20045;-73
2023/06/25 11:25:15;;;;;;;7.82;4.30;;;32.80;48.00;;;;;;5055136;28;20041;-73
2023/06/25 11:27:42;;;;;;;7.15;4.03;;;32.80;48.90;;;;;;5054904;28;20041;-74
2023/06/25 11:30:09;;;;;;;5.90;3.95;;;32.70;48.70;;;;;;5054951;28;20045;-74
2023/06/25 11:32:38;;;;;;;6.30;4.13;;;32.60;50.20;;;;;;5054547;28;20057;-73
2023/06/25 11:35:11;;;;;;;5.70;3.72;;;32.60;47.50;;;;;;5037136;28;20041;-73
2023/06/25 11:37:48;;;;;;;5.90;3.80;;;32.70;49.50;;;;;;5054786;28;20048;-73
2023/06/25 11:40:29;;;;;;;7.38;4.10;;;33.00;49.60;;;;;;5054474;28;20072;-74
2023/06/25 11:42:55;;;;;;;6.60;3.95;;;33.20;47.70;;;;;;5054359;28;20063;-73
2023/06/25 11:45:22;;;;;;;6.43;4.20;;;33.30;49.20;;;;;;5036780;28;20559;-72
2023/06/25 11:47:50;;;;;;;6.53;3.92;;;33.30;47.40;;;;;;5054684;28;20128;-72
2023/06/25 11:50:26;;;;;;;6.00;4.03;;;33.40;47.40;;;;;;5054635;28;20056;-72
2023/06/25 11:52:54;;;;;;;7.13;4.13;;;33.20;47.80;;;;;;5054090;28;20121;-73
2023/06/25 11:55:22;;;;;;;6.43;4.18;;;33.20;48.60;;;;;;5054203;28;20036;-73
2023/06/25 11:57:48;;;;;;;7.20;4.32;;;33.40;48.80;;;;;;5054435;28;20041;-74
2023/06/25 12:00:16;;;;;;;8.18;4.20;;;33.50;49.50;;;;;;5054309;28;20086;-75
2023/06/25 12:02:42;;;;;;;7.50;4.40;;;33.50;50.30;;;;;;4957247;28;20038;-74
2023/06/25 12:05:08;;;;;;;6.50;4.38;;;33.60;50.20;;;;;;4970576;28;20514;-74
2023/06/25 12:07:34;;;;;;;6.07;4.47;;;33.30;49.40;;;;;;5009773;28;20046;-73
2023/06/25 12:10:00;;;;;;;8.25;4.40;;;33.40;49.80;;;;;;5009841;28;20038;-73
2023/06/25 12:12:26;;;;;;;6.55;4.20;;;33.50;47.90;;;;;;4994584;28;20133;-73
2023/06/25 12:14:51;;;;;;;6.72;4.10;;;33.10;47.80;;;;;;4994504;28;20532;-73
2023/06/25 12:17:17;;;;;;;6.30;4.40;;;32.90;48.20;;;;;;5009603;28;20038;-73
2023/06/25 12:19:43;;;;;;;7.20;4.78;;;32.90;49.60;;;;;;4994739;28;20035;-73
2023/06/25 12:22:09;;;;;;;8.93;4.70;;;32.80;48.90;;;;;;5009605;28;20073;-73
2023/06/25 12:24:35;;;;;;;6.53;4.50;;;32.70;50.00;;;;;;5009582;28;20526;-74
2023/06/25 12:27:02;;;;;;;10.25;4.82;;;32.70;50.70;;;;;;4994656;28;20478;-73
2023/06/25 12:29:28;;;;;;;6.00;4.40;;;32.70;50.90;;;;;;5009370;28;20046;-73
2023/06/25 12:31:54;;;;;;;6.38;4.30;;;32.80;50.20;;;;;;4993902;28;20042;-73